createdAt,value
2023-12-24T00:01:16.370Z,98258.56
2023-12-24T00:03:43.278Z,98256.19
2023-12-24T00:06:10.422Z,98250.81
2023-12-24T00:08:37.675Z,98244.75
2023-12-24T00:11:05.632Z,98249.34
2023-12-24T00:13:33.330Z,98249.69
2023-12-24T00:15:59.918Z,98249.69
2023-12-24T00:18:26.764Z,98243.84
2023-12-24T00:20:53.483Z,98245.44
2023-12-24T00:23:20.088Z,98247.78
2023-12-24T00:25:46.747Z,98237.34
2023-12-24T00:28:13.744Z,98229.97
2023-12-24T00:30:40.584Z,98235.59
2023-12-24T00:33:07.347Z,98232.00
2023-12-24T00:35:35.607Z,98224.63
2023-12-24T00:38:02.503Z,98232.69
2023-12-24T00:40:29.102Z,98234.28
2023-12-24T00:42:55.942Z,98227.09
2023-12-24T00:45:22.813Z,98229.09
2023-12-24T00:47:49.934Z,98217.97
2023-12-24T00:50:16.814Z,98225.28
2023-12-24T00:52:43.491Z,98217.97
2023-12-24T00:55:10.445Z,98212.69
2023-12-24T00:57:38.850Z,98211.13
2023-12-24T01:00:09.419Z,98213.03
2023-12-24T01:02:36.310Z,98211.91
2023-12-24T01:05:03.702Z,98211.13
2023-12-24T01:07:30.333Z,98206.50
2023-12-24T01:09:56.882Z,98212.00
2023-12-24T01:12:23.917Z,98202.34
2023-12-24T01:14:50.481Z,98206.16
2023-12-24T01:17:17.232Z,98217.28
2023-12-24T01:19:45.494Z,98212.69
2023-12-24T01:22:12.073Z,98209.13
2023-12-24T01:24:38.647Z,98215.28
2023-12-24T01:27:05.792Z,98211.81
2023-12-24T01:29:32.599Z,98205.56
2023-12-24T01:31:59.307Z,98208.59
2023-12-24T01:34:26.440Z,98203.56
2023-12-24T01:36:53.398Z,98213.50
2023-12-24T01:39:21.604Z,98211.97
2023-12-24T01:41:48.817Z,98217.66
2023-12-24T01:44:15.773Z,98213.84
2023-12-24T01:46:42.550Z,98214.66
2023-12-24T01:49:09.728Z,98209.28
2023-12-24T01:51:36.673Z,98203.91
2023-12-24T01:54:04.905Z,98202.31
2023-12-24T01:56:33.349Z,98203.91
2023-12-24T01:59:00.919Z,98220.03
2023-12-24T02:01:28.632Z,98213.84
2023-12-24T02:04:01.150Z,98221.50
2023-12-24T02:06:28.366Z,98212.09
2023-12-24T02:08:57.232Z,98221.19
2023-12-24T02:11:24.105Z,98216.84
2023-12-24T02:13:50.848Z,98215.97
2023-12-24T02:16:20.897Z,98216.66
2023-12-24T02:18:48.816Z,98217.75
2023-12-24T02:21:15.452Z,98210.38
2023-12-24T02:23:42.271Z,98210.72
2023-12-24T02:26:23.384Z,98212.94
2023-12-24T02:28:54.615Z,98207.91
2023-12-24T02:31:27.929Z,98208.25
2023-12-24T02:33:58.654Z,98207.47
2023-12-24T02:36:26.464Z,98207.47
2023-12-24T02:38:53.158Z,98208.59
2023-12-24T02:41:19.965Z,98211.28
2023-12-24T02:43:46.572Z,98208.59
2023-12-24T02:46:13.439Z,98207.47
2023-12-24T02:48:40.225Z,98201.28
2023-12-24T02:51:06.889Z,98205.56
2023-12-24T02:53:33.739Z,98200.94
2023-12-24T02:56:01.420Z,98202.53
2023-12-24T02:58:29.235Z,98196.38
2023-12-24T03:00:55.940Z,98196.03
2023-12-24T03:03:23.010Z,98194.47
2023-12-24T03:05:49.705Z,98203.31
2023-12-24T03:08:16.817Z,98201.41
2023-12-24T03:10:43.526Z,98196.03
2023-12-24T03:13:10.263Z,98200.63
2023-12-24T03:15:36.802Z,98194.91
2023-12-24T03:18:04.032Z,98201.06
2023-12-24T03:20:30.885Z,98198.38
2023-12-24T03:22:57.713Z,98199.97
2023-12-24T03:25:24.704Z,98191.75
2023-12-24T03:27:51.394Z,98193.75
2023-12-24T03:30:19.147Z,98191.16
2023-12-24T03:32:45.833Z,98197.75
2023-12-24T03:35:12.763Z,98200.56
2023-12-24T03:37:39.418Z,98193.72
2023-12-24T03:40:06.603Z,98197.63
2023-12-24T03:42:33.342Z,98188.41
2023-12-24T03:45:00.487Z,98187.75
2023-12-24T03:47:27.134Z,98190.53
2023-12-24T03:49:53.760Z,98193.66
2023-12-24T03:52:24.271Z,98186.38
2023-12-24T03:54:50.834Z,98187.59
2023-12-24T03:57:17.382Z,98185.31
2023-12-24T03:59:44.249Z,98203.47
2023-12-24T04:02:11.116Z,98192.72
2023-12-24T04:04:37.918Z,98197.44
2023-12-24T04:07:05.145Z,98181.59
2023-12-24T04:09:33.022Z,98178.91
2023-12-24T04:11:59.690Z,98180.59
2023-12-24T04:14:26.744Z,98172.50
2023-12-24T04:16:53.559Z,98166.44
2023-12-24T04:19:20.286Z,98166.84
2023-12-24T04:21:47.093Z,98170.34
2023-12-24T04:24:13.970Z,98173.03
2023-12-24T04:26:40.626Z,98166.84
2023-12-24T04:29:07.298Z,98171.47
2023-12-24T04:31:33.991Z,98156.44
2023-12-24T04:34:00.982Z,98149.16
2023-12-24T04:36:27.674Z,98147.56
2023-12-24T04:38:54.314Z,98147.94
2023-12-24T04:41:21.203Z,98152.50
2023-12-24T04:43:47.900Z,98145.22
2023-12-24T04:46:14.515Z,98148.69
2023-12-24T04:51:07.981Z,98150.97
2023-12-24T04:53:34.776Z,98147.56
2023-12-24T04:56:01.546Z,98149.50
2023-12-24T04:58:28.173Z,98155.66
2023-12-24T05:00:54.964Z,98161.47
2023-12-24T05:03:21.687Z,98156.88
2023-12-24T05:05:48.732Z,98170.34
2023-12-24T05:08:15.449Z,98164.97
2023-12-24T05:10:42.603Z,98163.03
2023-12-24T05:13:13.082Z,98153.03
2023-12-24T05:15:39.745Z,98145.31
2023-12-24T05:18:06.761Z,98151.16
2023-12-24T05:20:33.985Z,98143.06
2023-12-24T05:23:00.681Z,98136.13
2023-12-24T05:25:27.295Z,98121.88
2023-12-24T05:27:54.180Z,98119.19
2023-12-24T05:30:20.807Z,98121.06
2023-12-24T05:32:47.494Z,98130.31
2023-12-24T05:35:14.473Z,98126.81
2023-12-24T05:37:41.221Z,98114.91
2023-12-24T05:40:08.322Z,98128.03
2023-12-24T05:42:35.069Z,98127.63
2023-12-24T05:45:01.878Z,98134.53
2023-12-24T05:47:28.480Z,98124.56
2023-12-24T05:49:55.181Z,98128.81
2023-12-24T05:52:21.790Z,98139.25
2023-12-24T05:54:48.785Z,98147.75
2023-12-24T05:57:15.460Z,98149.34
2023-12-24T05:59:42.370Z,98144.38
2023-12-24T06:02:08.945Z,98146.72
2023-12-24T06:04:35.676Z,98151.41
2023-12-24T06:07:02.790Z,98148.03
2023-12-24T06:09:29.615Z,98147.69
2023-12-24T06:11:56.315Z,98145.00
2023-12-24T06:14:22.893Z,98145.00
2023-12-24T06:16:49.764Z,98156.13
2023-12-24T06:19:18.257Z,98149.59
2023-12-24T06:21:45.206Z,98148.38
2023-12-24T06:24:12.400Z,98148.72
2023-12-24T06:26:39.163Z,98151.41
2023-12-24T06:29:05.988Z,98163.66
2023-12-24T06:31:32.907Z,98166.38
2023-12-24T06:33:59.802Z,98160.19
2023-12-24T06:36:26.408Z,98168.25
2023-12-24T06:38:53.161Z,98170.19
2023-12-24T06:41:20.336Z,98168.59
2023-12-24T06:43:46.896Z,98162.09
2023-12-24T06:46:14.037Z,98154.03
2023-12-24T06:48:41.174Z,98153.25
2023-12-24T06:51:08.351Z,98148.63
2023-12-24T06:53:36.013Z,98140.91
2023-12-24T06:56:03.155Z,98134.72
2023-12-24T06:58:29.756Z,98136.28
2023-12-24T07:00:56.740Z,98143.59
2023-12-24T07:03:23.653Z,98133.94
2023-12-24T07:05:51.687Z,98133.19
2023-12-24T07:08:18.461Z,98135.06
2023-12-24T07:10:45.314Z,98150.44
2023-12-24T07:13:11.866Z,98139.25
2023-12-24T07:15:40.835Z,98131.19
2023-12-24T07:18:08.856Z,98131.19
2023-12-24T07:20:36.217Z,98129.59
2023-12-24T07:23:03.391Z,98126.56
2023-12-24T07:25:30.399Z,98119.25
2023-12-24T07:27:56.989Z,98109.63
2023-12-24T07:30:23.651Z,98105.38
2023-12-24T07:32:50.681Z,98110.75
2023-12-24T07:35:17.731Z,98111.09
2023-12-24T07:37:44.391Z,98116.91
2023-12-24T07:40:11.474Z,98113.44
2023-12-24T07:42:38.960Z,98119.97
2023-12-24T07:45:06.160Z,98111.88
2023-12-24T07:47:33.078Z,98112.34
2023-12-24T07:50:00.339Z,98119.25
2023-12-24T07:52:26.993Z,98126.22
2023-12-24T07:54:53.861Z,98120.94
2023-12-24T07:57:20.609Z,98127.50
2023-12-24T07:59:47.206Z,98123.34
2023-12-24T08:02:14.052Z,98137.69
2023-12-24T08:04:41.027Z,98135.09
2023-12-24T08:07:07.783Z,98139.78
2023-12-24T08:09:34.559Z,98135.25
2023-12-24T08:12:01.334Z,98142.19
2023-12-24T08:14:27.945Z,98139.97
2023-12-24T08:16:54.931Z,98134.31
2023-12-24T08:19:21.676Z,98121.72
2023-12-24T08:21:48.331Z,98119.53
2023-12-24T08:24:15.143Z,98123.88
2023-12-24T08:26:42.499Z,98122.03
2023-12-24T08:29:09.142Z,98119.06
2023-12-24T08:31:35.883Z,98128.00
2023-12-24T08:34:02.758Z,98134.00
2023-12-24T08:36:29.528Z,98124.94
2023-12-24T08:38:56.444Z,98133.53
2023-12-24T08:41:23.036Z,98130.66
2023-12-24T08:43:49.666Z,98139.38
2023-12-24T08:46:16.318Z,98134.91
2023-12-24T08:48:42.932Z,98145.88
2023-12-24T08:51:09.560Z,98138.28
2023-12-24T08:53:36.935Z,98137.66
2023-12-24T08:56:03.709Z,98139.22
2023-12-24T08:58:30.938Z,98150.44
2023-12-24T09:01:02.825Z,98149.31
2023-12-24T09:03:29.400Z,98145.84
2023-12-24T09:05:56.102Z,98147.31
2023-12-24T09:08:23.156Z,98150.03
2023-12-24T09:10:49.893Z,98146.97
2023-12-24T09:13:16.459Z,98147.19
2023-12-24T09:15:43.575Z,98147.59
2023-12-24T09:18:10.335Z,98159.69
2023-12-24T09:20:37.004Z,98151.28
2023-12-24T09:23:03.942Z,98145.16
2023-12-24T09:25:30.526Z,98142.13
2023-12-24T09:27:57.075Z,98142.13
2023-12-24T09:30:25.700Z,98132.53
2023-12-24T09:32:52.652Z,98128.81
2023-12-24T09:35:19.438Z,98131.66
2023-12-24T09:37:46.108Z,98131.09
2023-12-24T09:40:13.038Z,98131.97
2023-12-24T09:42:39.683Z,98136.72
2023-12-24T09:45:07.068Z,98126.06
2023-12-24T09:47:33.732Z,98129.69
2023-12-24T09:50:02.232Z,98128.34
2023-12-24T09:52:30.542Z,98130.09
2023-12-24T09:54:57.298Z,98128.69
2023-12-24T09:57:23.969Z,98135.63
2023-12-24T09:59:50.807Z,98136.91
2023-12-24T10:02:17.616Z,98140.47
2023-12-24T10:04:44.540Z,98136.38
2023-12-24T10:07:11.326Z,98128.69
2023-12-24T10:09:51.035Z,98129.09
2023-12-24T10:12:19.286Z,98118.72
2023-12-24T10:14:59.269Z,98110.75
2023-12-24T10:17:34.359Z,98115.09
2023-12-24T10:20:06.121Z,98107.34
2023-12-24T10:22:33.081Z,98117.34
2023-12-24T10:25:05.305Z,98110.69
2023-12-24T10:27:32.850Z,98115.97
2023-12-24T10:30:17.893Z,98108.13
2023-12-24T10:32:45.406Z,98113.03
2023-12-24T10:35:13.094Z,98103.28
2023-12-24T10:37:39.952Z,98106.34
2023-12-24T10:40:09.857Z,98094.25
2023-12-24T10:42:37.722Z,98086.03
2023-12-24T10:45:08.844Z,98078.97
2023-12-24T10:47:37.142Z,98083.13
2023-12-24T10:50:05.036Z,98080.38
2023-12-24T10:52:33.027Z,98082.19
2023-12-24T10:55:02.053Z,98078.25
2023-12-24T10:58:02.048Z,98085.06
2023-12-24T11:00:28.946Z,98086.88
2023-12-24T11:02:56.066Z,98088.75
2023-12-24T11:05:49.997Z,98086.41
2023-12-24T11:08:23.133Z,98082.88
2023-12-24T11:11:08.631Z,98078.91
2023-12-24T11:13:37.847Z,98090.00
2023-12-24T11:16:07.281Z,98086.47
2023-12-24T11:18:48.555Z,98085.97
2023-12-24T11:21:20.919Z,98083.53
2023-12-24T11:24:09.623Z,98072.59
2023-12-24T11:26:36.476Z,98075.22
2023-12-24T11:29:41.901Z,98075.09
2023-12-24T11:32:31.661Z,98074.19
2023-12-24T11:35:00.732Z,98071.03
2023-12-24T11:37:32.024Z,98074.09
2023-12-24T11:40:25.917Z,98068.28
2023-12-24T11:42:53.473Z,98071.34
2023-12-24T11:45:25.444Z,98059.72
2023-12-24T11:47:54.054Z,98058.47
2023-12-24T11:50:21.476Z,98057.25
2023-12-24T11:52:49.241Z,98057.97
2023-12-24T11:55:20.098Z,98062.25
2023-12-24T11:57:47.803Z,98057.19
2023-12-24T12:00:15.808Z,98064.16
2023-12-24T12:02:43.568Z,98061.75
2023-12-24T12:05:10.974Z,98058.19
2023-12-24T12:07:37.646Z,98057.00
2023-12-24T12:10:05.161Z,98046.47
2023-12-24T12:12:32.042Z,98028.59
2023-12-24T12:14:58.593Z,98016.09
2023-12-24T12:17:30.372Z,98027.09
2023-12-24T12:19:57.448Z,98025.47
2023-12-24T12:22:23.983Z,98033.13
2023-12-24T12:24:50.524Z,98030.00
2023-12-24T12:27:17.932Z,98020.69
2023-12-24T12:29:45.390Z,98028.38
2023-12-24T12:32:12.023Z,98028.28
2023-12-24T12:34:39.526Z,98034.47
2023-12-24T12:37:06.226Z,98034.13
2023-12-24T12:39:32.836Z,98034.88
2023-12-24T12:41:59.765Z,98043.75
2023-12-24T12:44:26.373Z,98045.31
2023-12-24T12:46:53.074Z,98039.88
2023-12-24T12:49:19.969Z,98037.09
2023-12-24T12:51:47.507Z,98034.75
2023-12-24T12:54:15.875Z,98034.66
2023-12-24T12:56:44.554Z,98037.34
2023-12-24T12:59:21.731Z,98036.94
2023-12-24T13:01:49.432Z,98042.66
2023-12-24T13:04:26.579Z,98037.19
2023-12-24T13:06:54.452Z,98043.28
2023-12-24T13:09:24.800Z,98042.44
2023-12-24T13:11:51.815Z,98040.09
2023-12-24T13:14:18.560Z,98037.75
2023-12-24T13:16:45.192Z,98046.19
2023-12-24T13:19:19.296Z,98044.97
2023-12-24T13:21:46.307Z,98042.22
2023-12-24T13:24:13.023Z,98037.94
2023-12-24T13:26:39.882Z,98044.44
2023-12-24T13:29:07.061Z,98044.38
2023-12-24T13:31:33.993Z,98041.69
2023-12-24T13:34:00.847Z,98042.66
2023-12-24T13:36:27.586Z,98025.53
2023-12-24T13:38:56.188Z,98024.31
2023-12-24T13:41:23.152Z,98033.19
2023-12-24T13:43:51.472Z,98031.63
2023-12-24T13:46:20.937Z,98039.34
2023-12-24T13:48:48.643Z,98031.63
2023-12-24T13:51:18.547Z,98030.50
2023-12-24T13:53:45.863Z,98038.94
2023-12-24T13:59:05.961Z,98049.25
2023-12-24T14:01:33.401Z,98054.63
2023-12-24T14:04:00.012Z,98052.28
2023-12-24T14:06:27.258Z,98053.00
2023-12-24T14:08:54.155Z,98053.75
2023-12-24T14:11:20.793Z,98056.09
2023-12-24T14:13:47.707Z,98056.09
2023-12-24T14:16:15.084Z,98053.88
2023-12-24T14:18:42.268Z,98065.75
2023-12-24T14:21:09.105Z,98067.69
2023-12-24T14:23:35.892Z,98076.97
2023-12-24T14:26:02.460Z,98075.06
2023-12-24T14:28:29.388Z,98075.81
2023-12-24T14:30:56.203Z,98070.78
2023-12-24T14:33:22.817Z,98063.50
2023-12-24T14:35:50.053Z,98064.28
2023-12-24T14:38:16.979Z,98068.53
2023-12-24T14:40:43.663Z,98068.53
2023-12-24T14:43:10.602Z,98057.69
2023-12-24T14:45:37.146Z,98058.38
2023-12-24T14:48:04.764Z,98061.66
2023-12-24T14:50:31.799Z,98068.00
2023-12-24T14:52:58.517Z,98066.47
2023-12-24T14:55:25.096Z,98061.78
2023-12-24T14:57:52.163Z,98053.94
2023-12-24T15:11:04.304Z,98051.50
2023-12-24T15:13:30.860Z,98058.03
2023-12-24T15:15:57.443Z,98053.31
2023-12-24T15:18:24.498Z,98059.84
2023-12-24T15:20:51.421Z,98054.47
2023-12-24T15:23:18.168Z,98054.47
2023-12-24T15:25:44.942Z,98054.13
2023-12-24T15:28:11.478Z,98059.16
2023-12-24T15:30:42.206Z,98062.25
2023-12-24T15:33:09.360Z,98064.97
2023-12-24T15:35:36.089Z,98069.56
2023-12-24T15:38:03.054Z,98061.16
2023-12-24T15:40:29.588Z,98071.56
2023-12-24T15:42:56.794Z,98063.94
2023-12-24T15:45:25.024Z,98072.78
2023-12-24T15:47:52.248Z,98077.06
2023-12-24T15:50:19.034Z,98079.03
2023-12-24T15:52:45.667Z,98072.53
2023-12-24T15:55:12.247Z,98072.53
2023-12-24T15:57:38.786Z,98081.72
2023-12-24T16:00:07.193Z,98088.69
2023-12-24T16:02:34.057Z,98079.47
2023-12-24T16:05:00.730Z,98079.47
2023-12-24T16:07:28.705Z,98094.84
2023-12-24T16:09:55.396Z,98089.13
2023-12-24T16:12:22.168Z,98091.91
2023-12-24T16:14:49.037Z,98091.09
2023-12-24T16:17:15.821Z,98083.84
2023-12-24T16:19:42.448Z,98084.16
2023-12-24T16:22:09.203Z,98074.97
2023-12-24T16:24:35.787Z,98073.06
2023-12-24T16:27:04.035Z,98068.47
2023-12-24T16:29:31.059Z,98065.75
2023-12-24T16:31:57.675Z,98069.69
2023-12-24T16:34:24.298Z,98072.38
2023-12-24T16:36:51.173Z,98077.41
2023-12-24T16:39:20.058Z,98072.03
2023-12-24T16:41:49.180Z,98075.13
2023-12-24T16:44:16.105Z,98074.00
2023-12-24T16:46:42.977Z,98070.19
2023-12-24T16:49:09.808Z,98073.66
2023-12-24T16:51:37.100Z,98065.22
2023-12-24T16:54:04.197Z,98062.53
2023-12-24T16:56:30.768Z,98053.75
2023-12-24T16:58:57.583Z,98059.16
2023-12-24T17:01:25.148Z,98056.09
2023-12-24T17:03:52.664Z,98059.94
2023-12-24T17:06:19.414Z,98060.72
2023-12-24T17:08:46.439Z,98071.13
2023-12-24T17:11:13.053Z,98074.63
2023-12-24T17:13:41.210Z,98070.03
2023-12-24T17:16:07.879Z,98064.63
2023-12-24T17:18:34.577Z,98070.78
2023-12-24T17:21:01.243Z,98070.78
2023-12-24T17:23:28.045Z,98083.13
2023-12-24T17:25:54.801Z,98078.44
2023-12-24T17:28:21.369Z,98078.09
2023-12-24T17:30:48.198Z,98076.19
2023-12-24T17:33:15.028Z,98076.97
2023-12-24T17:35:41.735Z,98085.41
2023-12-24T17:38:08.518Z,98082.38
2023-12-24T17:40:35.347Z,98076.97
2023-12-24T17:43:01.899Z,98072.38
2023-12-24T17:45:28.700Z,98080.44
2023-12-24T17:48:03.112Z,98085.81
2023-12-24T17:50:36.141Z,98090.09
2023-12-24T17:53:02.964Z,98085.47
2023-12-24T17:55:29.611Z,98091.63
2023-12-24T17:57:56.679Z,98098.59
2023-12-24T18:00:23.290Z,98090.50
2023-12-24T18:02:50.119Z,98082.09
2023-12-24T18:05:17.070Z,98084.44
2023-12-24T18:07:44.872Z,98086.75
2023-12-24T18:10:11.589Z,98082.59
2023-12-24T18:12:38.651Z,98082.59
2023-12-24T18:15:06.363Z,98087.63
2023-12-24T18:17:33.098Z,98085.75
2023-12-24T18:19:59.730Z,98089.38
2023-12-24T18:22:26.302Z,98086.69
2023-12-24T18:24:52.882Z,98084.78
2023-12-24T18:27:19.522Z,98085.91
2023-12-24T18:29:46.232Z,98095.13
2023-12-24T18:32:12.978Z,98100.50
2023-12-24T18:34:41.045Z,98104.31
2023-12-24T18:37:07.863Z,98107.00
2023-12-24T18:39:34.466Z,98109.28
2023-12-24T18:42:01.124Z,98106.13
2023-12-24T18:44:27.994Z,98094.25
2023-12-24T18:46:54.694Z,98088.09
2023-12-24T18:49:21.367Z,98092.66
2023-12-24T18:51:48.307Z,98096.06
2023-12-24T18:54:15.074Z,98098.75
2023-12-24T18:56:41.965Z,98088.34
2023-12-24T18:59:08.651Z,98091.47
2023-12-24T19:01:35.274Z,98101.44
2023-12-24T19:04:02.229Z,98102.59
2023-12-24T19:06:30.230Z,98090.69
2023-12-24T19:09:00.028Z,98101.03
2023-12-24T19:11:27.224Z,98097.22
2023-12-24T19:13:54.464Z,98096.88
2023-12-24T19:16:21.093Z,98087.22
2023-12-24T19:18:48.171Z,98087.22
2023-12-24T19:21:15.574Z,98099.13
2023-12-24T19:23:42.579Z,98104.16
2023-12-24T19:26:09.498Z,98105.31
2023-12-24T19:28:36.813Z,98102.59
2023-12-24T19:31:04.863Z,98101.44
2023-12-24T19:33:32.455Z,98110.69
2023-12-24T19:35:59.331Z,98103.72
2023-12-24T19:38:26.220Z,98106.41
2023-12-24T19:40:52.910Z,98109.13
2023-12-24T19:43:19.490Z,98097.13
2023-12-24T19:45:46.705Z,98104.44
2023-12-24T19:48:13.659Z,98101.03
2023-12-24T19:50:40.953Z,98095.66
2023-12-24T19:53:07.932Z,98088.69
2023-12-24T19:55:34.578Z,98088.28
2023-12-24T19:58:01.156Z,98090.50
2023-12-24T20:00:27.979Z,98078.16
2023-12-24T20:02:55.653Z,98076.97
2023-12-24T20:05:22.807Z,98074.28
2023-12-24T20:07:49.783Z,98074.63
2023-12-24T20:10:16.401Z,98070.78
2023-12-24T20:12:43.368Z,98066.97
2023-12-24T20:15:10.328Z,98068.91
2023-12-24T20:17:37.196Z,98076.97
2023-12-24T20:20:04.259Z,98092.34
2023-12-24T20:22:30.846Z,98094.69
2023-12-24T20:24:58.625Z,98090.09
2023-12-24T20:27:25.161Z,98087.75
2023-12-24T20:29:52.859Z,98098.88
2023-12-24T20:32:20.209Z,98098.53
2023-12-24T20:34:48.362Z,98098.16
2023-12-24T20:37:15.106Z,98095.47
2023-12-24T20:39:41.970Z,98099.72
2023-12-24T20:42:09.459Z,98098.59
2023-12-24T20:44:42.258Z,98088.94
2023-12-24T20:47:09.359Z,98094.00
2023-12-24T20:49:37.883Z,98092.84
2023-12-24T20:52:06.499Z,98085.56
2023-12-24T20:54:33.151Z,98090.97
2023-12-24T20:57:00.069Z,98085.56
2023-12-24T20:59:26.676Z,98095.19
2023-12-24T21:01:56.222Z,98095.19
2023-12-24T21:04:23.004Z,98095.19
2023-12-24T21:06:49.573Z,98096.00
2023-12-24T21:09:17.075Z,98093.66
2023-12-24T21:11:44.324Z,98095.13
2023-12-24T21:14:11.105Z,98099.72
2023-12-24T21:16:37.853Z,98091.22
2023-12-24T21:19:04.849Z,98099.28
2023-12-24T21:21:33.096Z,98107.38
2023-12-24T21:24:00.092Z,98101.88
2023-12-24T21:26:26.985Z,98101.56
2023-12-24T21:28:53.589Z,98098.00
2023-12-24T21:31:20.371Z,98091.03
2023-12-24T21:33:47.957Z,98091.38
2023-12-24T21:36:16.277Z,98087.56
2023-12-24T21:38:45.980Z,98072.19
2023-12-24T21:41:13.604Z,98071.41
2023-12-24T21:43:40.243Z,98072.19
2023-12-24T21:46:07.396Z,98068.38
2023-12-24T21:48:34.267Z,98068.72
2023-12-24T21:51:01.188Z,98073.31
2023-12-24T21:53:28.706Z,98080.28
2023-12-24T21:55:55.360Z,98091.03
2023-12-24T21:58:21.973Z,98088.69
2023-12-24T22:00:52.093Z,98069.84
2023-12-24T22:03:24.654Z,98066.03
2023-12-24T22:05:56.689Z,98062.28
2023-12-24T22:08:23.695Z,98057.59
2023-12-24T22:10:50.324Z,98061.16
2023-12-24T22:13:16.901Z,98067.69
2023-12-24T22:15:43.509Z,98068.78
2023-12-24T22:18:10.320Z,98066.22
2023-12-24T22:20:37.879Z,98064.38
2023-12-24T22:23:04.623Z,98071.66
2023-12-24T22:25:31.328Z,98057.06
2023-12-24T22:28:00.987Z,98055.25
2023-12-24T22:30:28.378Z,98057.59
2023-12-24T22:32:56.693Z,98064.91
2023-12-24T22:35:24.714Z,98056.72
2023-12-24T22:37:51.811Z,98052.81
2023-12-24T22:40:18.993Z,98060.88
2023-12-24T22:42:45.727Z,98061.59
2023-12-24T22:45:12.307Z,98058.47
2023-12-24T22:47:39.027Z,98042.66
2023-12-24T22:50:06.316Z,98053.00
2023-12-24T22:52:32.955Z,98058.38
2023-12-24T22:54:59.693Z,98051.44
2023-12-24T22:57:26.591Z,98059.84
2023-12-24T22:59:53.330Z,98056.91
2023-12-24T23:02:20.167Z,98067.69
2023-12-24T23:04:46.890Z,98062.28
2023-12-24T23:07:14.137Z,98057.25
2023-12-24T23:09:42.360Z,98056.09
2023-12-24T23:12:09.885Z,98058.03
2023-12-24T23:14:36.796Z,98041.00
2023-12-24T23:17:03.782Z,98041.00
2023-12-24T23:19:34.259Z,98025.97
2023-12-24T23:22:01.857Z,98013.72
2023-12-24T23:24:28.761Z,98019.91
2023-12-24T23:26:55.558Z,98036.84
2023-12-24T23:29:22.574Z,98029.88
2023-12-24T23:31:49.199Z,98026.84
2023-12-24T23:34:16.375Z,98028.41
2023-12-24T23:36:43.514Z,98027.66
2023-12-24T23:39:10.062Z,98032.22
2023-12-24T23:41:36.921Z,98031.47
2023-12-24T23:44:03.636Z,98044.50
2023-12-24T23:46:30.189Z,98035.63
2023-12-24T23:48:56.980Z,98035.63
2023-12-24T23:51:24.193Z,98029.19
2023-12-24T23:53:52.000Z,98021.91
2023-12-24T23:56:19.297Z,98033.78
2023-12-24T23:58:46.520Z,98029.19
